Pagina principale
METAR-TAF:

METAR-TAF

Aeroporti :

Bückeburg, Germania

latitudine: 52-17N, longitudine: 009-05E, altezza: 70 m

Osservazione

Il bollettino è stato emesso 47 minuti fa, alle 02:20 UTC
Vento 10 kt da ovest
Temperature 5°C
Umidità 75%
Pressione 1020 hPa
Visibilità 10 km o più
Poco nuvoloso ad un'altezza di 2500 ft
Nuvoloso ad un'altezza di 3100 ft

METAR: ETHB 240220Z 26010KT 9999 FEW025 BKN031 05/01 Q1020 BLU

Ora: 04:07 (03:07 UTC)


TAF: mancante

Osservazioni e previsioni meteorologiche di più di 4000 aeroporti (messaggi METAR e TAF).

Le stazioni disponibili sono rappresentate dai dischi gialli e rossi sulla carta.

Puntare il mouse per vedere il nome della stazione.

Clicca sopra per visualizzare le osservazioni e previsioni meteorologiche.

Per cambiare la mappa : fare clic sui pulsanti verdi con una croce nera per ingrandire, il pulsante verde con un trattino per diminuire, o sulla freccia verde per le mappe adiacenti.


METAR-TAF: